createdAt,value
2019-01-28T00:02:42.955Z,3.94
2019-01-28T00:07:46.443Z,3.97
2019-01-28T00:12:49.901Z,4.04
2019-01-28T00:17:53.333Z,4.08
2019-01-28T00:22:56.781Z,4.08
2019-01-28T00:28:00.216Z,4.04
2019-01-28T00:33:04.023Z,4.04
2019-01-28T00:38:07.445Z,4.05
2019-01-28T00:43:10.903Z,4.08
2019-01-28T00:48:14.467Z,4.09
2019-01-28T00:53:17.921Z,4.13
2019-01-28T00:58:21.346Z,4.09
2019-01-28T01:03:24.822Z,4.16
2019-01-28T01:08:28.258Z,4.07
2019-01-28T01:13:31.706Z,4.08
2019-01-28T01:18:35.141Z,4.03
2019-01-28T01:23:38.589Z,4.04
2019-01-28T01:28:42.036Z,4.10
2019-01-28T01:33:45.483Z,4.06
2019-01-28T01:38:49.135Z,4.04
2019-01-28T01:43:52.513Z,4.10
2019-01-28T01:48:55.998Z,4.07
2019-01-28T01:53:59.438Z,4.07
2019-01-28T01:59:02.901Z,4.07
2019-01-28T02:04:06.389Z,4.03
2019-01-28T02:09:09.820Z,4.05
2019-01-28T02:14:13.425Z,4.09
2019-01-28T02:19:16.848Z,4.05
2019-01-28T02:24:20.345Z,4.07
2019-01-28T02:29:23.777Z,4.00
2019-01-28T02:34:27.271Z,4.10
2019-01-28T02:39:30.777Z,4.01
2019-01-28T02:44:34.236Z,3.92
2019-01-28T02:49:37.760Z,4.01
2019-01-28T02:54:41.191Z,3.89
2019-01-28T02:59:44.661Z,3.96
2019-01-28T03:04:48.110Z,3.93
2019-01-28T03:09:51.608Z,3.93
2019-01-28T03:14:55.025Z,3.92
2019-01-28T03:19:58.469Z,3.89
2019-01-28T03:25:01.979Z,3.84
2019-01-28T03:30:08.961Z,3.91
2019-01-28T03:35:12.606Z,3.88
2019-01-28T03:40:18.294Z,3.83
2019-01-28T03:45:22.990Z,3.84
2019-01-28T03:50:26.400Z,3.77
2019-01-28T03:55:29.832Z,3.84
2019-01-28T04:00:33.256Z,3.83
2019-01-28T04:05:36.696Z,3.86
2019-01-28T04:10:40.112Z,3.77
2019-01-28T04:15:43.530Z,3.81
2019-01-28T04:20:47.574Z,3.76
2019-01-28T04:25:51.059Z,3.69
2019-01-28T04:30:54.499Z,3.80
2019-01-28T04:35:57.918Z,3.76
2019-01-28T04:41:01.390Z,3.74
2019-01-28T04:46:04.826Z,3.71
2019-01-28T04:51:08.252Z,3.67
2019-01-28T04:56:11.738Z,3.66
2019-01-28T05:01:15.170Z,3.47
2019-01-28T05:06:18.585Z,3.57
2019-01-28T05:11:22.011Z,3.57
2019-01-28T05:16:25.444Z,3.54
2019-01-28T05:21:28.916Z,3.44
2019-01-28T05:26:32.393Z,3.45
2019-01-28T05:31:35.744Z,3.41
2019-01-28T05:36:39.170Z,3.35
2019-01-28T05:41:42.630Z,3.31
2019-01-28T05:46:46.039Z,3.18
2019-01-28T05:51:49.517Z,3.24
2019-01-28T05:56:53.003Z,3.12
2019-01-28T06:01:56.428Z,3.16
2019-01-28T06:06:59.861Z,3.07
2019-01-28T06:12:03.309Z,3.12
2019-01-28T06:17:06.752Z,3.16
2019-01-28T06:22:10.202Z,3.02
2019-01-28T06:27:13.629Z,3.12
2019-01-28T06:32:17.051Z,3.03
2019-01-28T06:37:20.541Z,3.07
2019-01-28T06:42:24.023Z,3.04
2019-01-28T06:47:27.442Z,3.14
2019-01-28T06:52:30.883Z,3.15
2019-01-28T06:57:34.320Z,3.13
2019-01-28T07:02:37.880Z,3.17
2019-01-28T07:07:41.364Z,3.19
2019-01-28T07:12:44.783Z,3.16
2019-01-28T07:17:54.618Z,3.16
2019-01-28T07:22:53.767Z,3.15
2019-01-28T07:27:57.195Z,3.14
2019-01-28T07:33:00.649Z,3.16
2019-01-28T07:38:04.439Z,3.20
2019-01-28T07:43:07.972Z,3.22
2019-01-28T07:48:11.374Z,3.29
2019-01-28T07:53:14.815Z,3.32
2019-01-28T07:58:19.168Z,3.31
2019-01-28T08:03:22.589Z,3.40
2019-01-28T08:08:26.003Z,3.44
2019-01-28T08:13:29.545Z,3.41
2019-01-28T08:18:32.986Z,3.45
2019-01-28T08:23:36.475Z,3.45
2019-01-28T08:28:39.949Z,3.52
2019-01-28T08:33:43.372Z,3.51
2019-01-28T08:38:46.792Z,3.54
2019-01-28T08:43:50.231Z,3.52
2019-01-28T08:48:53.765Z,3.54
2019-01-28T08:53:57.370Z,3.48
2019-01-28T08:59:00.881Z,3.51
2019-01-28T09:04:04.598Z,3.45
2019-01-28T09:09:09.462Z,3.56
2019-01-28T09:14:12.937Z,3.64
2019-01-28T09:19:16.741Z,3.63
2019-01-28T09:24:20.179Z,3.69
2019-01-28T09:29:23.617Z,3.72
2019-01-28T09:34:27.090Z,3.83
2019-01-28T09:39:30.533Z,3.88
2019-01-28T09:44:33.968Z,3.94
2019-01-28T09:49:37.374Z,3.96
2019-01-28T09:54:40.810Z,4.06
2019-01-28T09:59:44.412Z,4.14
2019-01-28T10:04:47.920Z,4.18
2019-01-28T10:09:51.503Z,4.18
2019-01-28T10:14:54.946Z,4.22
2019-01-28T10:19:58.341Z,4.28
2019-01-28T10:25:01.779Z,4.28
2019-01-28T10:30:08.875Z,4.33
2019-01-28T10:35:12.681Z,4.44
2019-01-28T10:40:19.509Z,4.48
2019-01-28T10:45:23.274Z,4.52
2019-01-28T10:50:27.939Z,4.62
2019-01-28T10:55:31.486Z,4.62
2019-01-28T11:00:40.226Z,4.68
2019-01-28T11:05:45.373Z,4.75
2019-01-28T11:10:49.037Z,4.64
2019-01-28T11:15:52.455Z,4.66
2019-01-28T11:20:55.894Z,4.62
2019-01-28T11:25:59.655Z,4.68
2019-01-28T11:31:04.824Z,4.62
2019-01-28T11:36:08.740Z,4.63
2019-01-28T11:41:12.349Z,4.72
2019-01-28T11:46:15.827Z,4.74
2019-01-28T11:51:19.234Z,4.69
2019-01-28T11:56:22.672Z,4.63
2019-01-28T12:01:27.488Z,4.58
2019-01-28T12:06:30.943Z,4.61
2019-01-28T12:11:34.397Z,4.60
2019-01-28T12:16:37.848Z,4.67
2019-01-28T12:21:41.696Z,4.66
2019-01-28T12:26:45.168Z,4.80
2019-01-28T12:31:48.600Z,4.76
2019-01-28T12:36:52.028Z,4.82
2019-01-28T12:41:55.474Z,4.93
2019-01-28T12:46:58.967Z,5.12
2019-01-28T12:52:02.403Z,5.13
2019-01-28T12:57:08.643Z,5.23
2019-01-28T13:02:12.197Z,5.23
2019-01-28T13:07:15.693Z,5.36
2019-01-28T13:12:19.136Z,5.36
2019-01-28T13:17:22.627Z,5.38
2019-01-28T13:22:26.245Z,5.38
2019-01-28T13:27:30.031Z,5.36
2019-01-28T13:32:33.636Z,5.40
2019-01-28T13:37:37.182Z,5.40
2019-01-28T13:42:40.706Z,5.40
2019-01-28T13:47:44.482Z,5.39
2019-01-28T13:52:48.145Z,5.46
2019-01-28T13:57:51.653Z,5.55
2019-01-28T14:02:55.524Z,5.53
2019-01-28T14:07:59.134Z,5.36
2019-01-28T14:13:02.588Z,4.81
2019-01-28T14:18:07.605Z,4.46
2019-01-28T14:23:11.114Z,4.33
2019-01-28T14:28:14.532Z,4.27
2019-01-28T14:33:18.124Z,4.22
2019-01-28T14:38:21.914Z,4.00
2019-01-28T14:43:25.334Z,3.91
2019-01-28T14:48:28.863Z,3.77
2019-01-28T14:53:32.271Z,3.82
2019-01-28T14:58:35.734Z,3.78
2019-01-28T15:03:39.164Z,3.82
2019-01-28T15:08:42.635Z,3.74
2019-01-28T15:13:46.088Z,3.77
2019-01-28T15:18:49.572Z,3.67
2019-01-28T15:23:52.998Z,3.66
2019-01-28T15:28:56.456Z,3.67
2019-01-28T15:33:59.955Z,3.58
2019-01-28T15:39:05.035Z,3.58
2019-01-28T15:44:08.535Z,3.66
2019-01-28T15:49:12.051Z,3.62
2019-01-28T15:54:15.549Z,3.57
2019-01-28T15:59:19.151Z,3.49
2019-01-28T16:04:22.545Z,3.45
2019-01-28T16:09:28.953Z,3.34
2019-01-28T16:14:31.219Z,3.20
2019-01-28T16:19:34.663Z,3.18
2019-01-28T16:24:38.078Z,3.23
2019-01-28T16:29:41.796Z,3.22
2019-01-28T16:34:45.227Z,3.30
2019-01-28T16:39:48.665Z,3.27
2019-01-28T16:44:52.197Z,3.19
2019-01-28T16:49:55.738Z,3.15
2019-01-28T16:54:59.164Z,3.16
2019-01-28T17:00:18.856Z,3.12
2019-01-28T17:05:22.516Z,3.09
2019-01-28T17:10:26.009Z,3.01
2019-01-28T17:15:29.522Z,3.06
2019-01-28T17:20:35.598Z,3.07
2019-01-28T17:25:41.656Z,3.01
2019-01-28T17:30:47.161Z,2.99
2019-01-28T17:35:50.672Z,2.94
2019-01-28T17:40:54.131Z,2.80
2019-01-28T17:45:57.570Z,2.81
2019-01-28T17:51:02.029Z,2.71
2019-01-28T17:56:05.643Z,2.77
2019-01-28T18:01:09.106Z,2.74
2019-01-28T18:06:12.541Z,2.80
2019-01-28T18:11:16.130Z,2.84
2019-01-28T18:16:19.943Z,2.81
2019-01-28T18:21:23.554Z,2.78
2019-01-28T18:26:27.269Z,2.84
2019-01-28T18:31:30.733Z,2.86
2019-01-28T18:36:34.159Z,2.96
2019-01-28T18:41:37.577Z,2.91
2019-01-28T18:46:41.052Z,2.90
2019-01-28T18:51:44.654Z,2.97
2019-01-28T18:56:48.070Z,2.93
2019-01-28T19:01:51.569Z,2.88
2019-01-28T19:06:56.651Z,2.84
2019-01-28T19:12:01.754Z,2.86
2019-01-28T19:17:07.202Z,2.77
2019-01-28T19:22:10.646Z,2.70
2019-01-28T19:27:14.061Z,2.67
2019-01-28T19:32:17.473Z,2.61
2019-01-28T19:37:20.910Z,2.61
2019-01-28T19:42:24.373Z,2.64
2019-01-28T19:47:28.071Z,2.65
2019-01-28T19:52:31.521Z,2.56
2019-01-28T19:57:34.960Z,2.59
2019-01-28T20:02:38.453Z,2.58
2019-01-28T20:07:41.899Z,2.57
2019-01-28T20:12:45.516Z,2.62
2019-01-28T20:17:49.190Z,2.64
2019-01-28T20:22:52.715Z,2.59
2019-01-28T20:27:56.246Z,2.64
2019-01-28T20:32:59.660Z,2.64
2019-01-28T20:38:03.118Z,2.66
2019-01-28T20:43:06.660Z,2.62
2019-01-28T20:48:10.118Z,2.58
2019-01-28T20:53:13.687Z,2.55
2019-01-28T20:58:17.227Z,2.58
2019-01-28T21:03:20.603Z,2.57
2019-01-28T21:08:24.133Z,2.62
2019-01-28T21:13:27.629Z,2.63
2019-01-28T21:18:31.054Z,2.67
2019-01-28T21:23:34.524Z,2.69
2019-01-28T21:28:37.953Z,2.74
2019-01-28T21:33:41.377Z,2.78
2019-01-28T21:38:46.406Z,2.81
2019-01-28T21:43:49.995Z,2.77
2019-01-28T21:48:53.498Z,2.78
2019-01-28T21:53:57.204Z,2.78
2019-01-28T21:59:00.661Z,2.74
2019-01-28T22:04:04.249Z,2.74
2019-01-28T22:09:08.912Z,2.69
2019-01-28T22:14:12.350Z,2.66
2019-01-28T22:19:15.798Z,2.63
2019-01-28T22:24:19.665Z,2.68
2019-01-28T22:29:23.225Z,2.65
2019-01-28T22:34:26.837Z,2.65
2019-01-28T22:39:30.263Z,2.68
2019-01-28T22:44:33.674Z,2.62
2019-01-28T22:49:37.197Z,2.64
2019-01-28T22:54:40.616Z,2.56
2019-01-28T22:59:44.034Z,2.50
2019-01-28T23:04:47.687Z,2.48
2019-01-28T23:09:51.379Z,2.51
2019-01-28T23:14:54.884Z,2.45
2019-01-28T23:19:58.301Z,2.49
2019-01-28T23:25:01.822Z,2.52
2019-01-28T23:30:08.942Z,2.51
2019-01-28T23:35:12.585Z,2.52
2019-01-28T23:40:16.106Z,2.50
2019-01-28T23:45:19.667Z,2.52
2019-01-28T23:50:23.219Z,2.43
2019-01-28T23:55:26.644Z,2.46
